Time;durP1;ratioP1;P1;durP2;ratioP2;P2;SDS_P1;SDS_P2;PMS_P1;PMS_P2;Temp;Humidity;BMP_temperature;BMP_pressure;BME280_temperature;BME280_humidity;BME280_pressure;Samples;Min_cycle;Max_cycle;Signal;HPM_P1;HPM_P2
2023/04/05 00:00:36;;;;;;;9.03;8.07;;;1.90;1.00;;;;;;5073110;28;20261;-63
2023/04/05 00:03:03;;;;;;;8.63;7.83;;;1.90;1.00;;;;;;5072963;28;20194;-63
2023/04/05 00:05:33;;;;;;;8.57;7.80;;;1.80;99.90;;;;;;5073313;28;20279;-63
2023/04/05 00:08:00;;;;;;;8.00;7.50;;;1.80;1.00;;;;;;5073061;28;20181;-63
2023/04/05 00:10:30;;;;;;;7.90;7.30;;;1.70;82.80;;;;;;5073152;28;20699;-63
2023/04/05 00:12:57;;;;;;;7.80;7.13;;;1.70;99.90;;;;;;5072876;28;20656;-63
2023/04/05 00:15:23;;;;;;;8.10;7.60;;;1.60;1.00;;;;;;5072911;28;20240;-63
2023/04/05 00:17:49;;;;;;;8.60;7.90;;;1.60;1.00;;;;;;5072139;28;20635;-63
2023/04/05 00:20:15;;;;;;;7.33;6.93;;;1.60;1.00;;;;;;5072810;28;20173;-63
2023/04/05 00:22:43;;;;;;;7.50;7.07;;;1.50;1.00;;;;;;5072659;28;20182;-63
2023/04/05 00:25:09;;;;;;;7.10;6.70;;;1.60;23.20;;;;;;5072051;28;20576;-63
2023/04/05 00:27:35;;;;;;;9.03;8.33;;;1.50;1.00;;;;;;5072659;28;20254;-63
2023/04/05 00:30:01;;;;;;;8.03;7.33;;;1.50;1.00;;;;;;5072676;28;20198;-63
2023/04/05 00:32:26;;;;;;;8.13;7.43;;;1.50;1.00;;;;;;5071132;28;20284;-63
2023/04/05 00:34:52;;;;;;;8.30;7.77;;;1.40;1.00;;;;;;5072874;28;20182;-63
2023/04/05 00:37:17;;;;;;;7.20;6.80;;;1.40;1.00;;;;;;5071869;28;20229;-63
2023/04/05 00:39:44;;;;;;;9.07;8.47;;;1.40;1.00;;;;;;5072403;28;20174;-63
2023/04/05 00:42:10;;;;;;;12.47;8.30;;;1.40;1.00;;;;;;5071807;28;20178;-63
2023/04/05 00:44:36;;;;;;;9.90;8.97;;;1.40;1.00;;;;;;5072488;28;20362;-63
2023/04/05 00:47:03;;;;;;;8.40;7.87;;;1.30;1.00;;;;;;5072216;28;20220;-63
2023/04/05 00:49:30;;;;;;;9.23;8.33;;;1.40;1.00;;;;;;5072805;28;20671;-63
2023/04/05 00:51:57;;;;;;;8.87;8.20;;;1.40;1.00;;;;;;5071051;28;20196;-63
2023/04/05 00:54:29;;;;;;;11.60;8.60;;;1.50;1.00;;;;;;5071308;28;20181;-63
2023/04/05 00:56:58;;;;;;;8.50;7.73;;;1.50;1.00;;;;;;5071763;28;20194;-63
2023/04/05 00:59:24;;;;;;;8.00;7.60;;;1.60;63.60;;;;;;5070564;28;20251;-63
2023/04/05 01:02:05;;;;;;;8.83;7.53;;;1.70;97.60;;;;;;5072002;28;20560;-63
2023/04/05 01:04:35;;;;;;;7.50;7.00;;;1.70;30.10;;;;;;5072236;28;20338;-63
2023/04/05 01:07:24;;;;;;;8.07;7.47;;;1.80;1.00;;;;;;5071825;28;20194;-63
2023/04/05 01:09:56;;;;;;;8.43;7.87;;;1.90;1.00;;;;;;5071157;28;20198;-63
2023/04/05 01:12:27;;;;;;;8.90;7.47;;;1.90;1.00;;;;;;5071486;28;20236;-63
2023/04/05 01:14:54;;;;;;;8.00;7.50;;;1.90;1.00;;;;;;5070698;28;20265;-63
2023/04/05 01:17:22;;;;;;;7.37;6.87;;;1.90;1.00;;;;;;5070097;28;20190;-63
2023/04/05 01:20:01;;;;;;;8.20;7.60;;;2.00;1.00;;;;;;5071723;28;20193;-63
2023/04/05 01:22:58;;;;;;;7.60;7.10;;;2.00;1.00;;;;;;5071271;28;20197;-63
2023/04/05 01:25:36;;;;;;;10.03;7.63;;;2.00;1.00;;;;;;5051686;28;20179;-63
2023/04/05 01:28:23;;;;;;;8.97;8.20;;;2.00;1.00;;;;;;5064223;28;20174;-63
2023/04/05 01:30:54;;;;;;;8.37;7.67;;;2.00;1.00;;;;;;5071182;28;20170;-63
2023/04/05 01:33:40;;;;;;;8.50;7.90;;;2.10;1.00;;;;;;5071127;28;20192;-63
2023/04/05 01:36:11;;;;;;;7.93;7.10;;;2.20;1.00;;;;;;5071628;28;20197;-63
2023/04/05 01:38:39;;;;;;;7.90;7.43;;;2.20;1.00;;;;;;5071714;28;20182;-63
2023/04/05 01:41:05;;;;;;;8.60;7.87;;;2.20;1.00;;;;;;5071351;28;20712;-63
2023/04/05 01:43:31;;;;;;;8.63;8.03;;;2.30;1.00;;;;;;5071413;28;20198;-63
2023/04/05 01:45:56;;;;;;;9.50;8.90;;;2.30;1.00;;;;;;5071863;28;20520;-63
2023/04/05 01:48:22;;;;;;;7.63;6.93;;;2.40;1.00;;;;;;5071476;28;20580;-63
2023/04/05 01:50:47;;;;;;;7.20;6.63;;;2.40;1.00;;;;;;5070941;28;20180;-63
2023/04/05 01:53:13;;;;;;;7.73;7.03;;;2.40;1.00;;;;;;5071093;28;20643;-63
2023/04/05 01:55:39;;;;;;;7.73;7.13;;;2.40;1.00;;;;;;5071469;28;20240;-63
2023/04/05 01:58:04;;;;;;;7.70;7.20;;;2.50;1.00;;;;;;5071808;28;20212;-63
2023/04/05 02:00:30;;;;;;;8.27;7.67;;;2.50;1.00;;;;;;5071075;28;20178;-63
2023/04/05 02:02:55;;;;;;;8.20;7.50;;;2.50;1.00;;;;;;5071291;28;20221;-63
2023/04/05 02:05:21;;;;;;;7.87;7.23;;;2.50;1.00;;;;;;5074908;28;20695;-63
2023/04/05 02:07:47;;;;;;;7.50;7.00;;;2.50;99.90;;;;;;5075200;28;20180;-63
2023/04/05 02:10:13;;;;;;;8.27;7.73;;;2.50;99.90;;;;;;5074950;28;20554;-63
2023/04/05 02:12:38;;;;;;;7.70;7.20;;;2.50;99.90;;;;;;5075003;28;20238;-64
2023/04/05 02:15:05;;;;;;;9.60;7.70;;;2.50;99.90;;;;;;5073871;28;20167;-63
2023/04/05 02:17:32;;;;;;;7.17;6.63;;;2.50;99.90;;;;;;5075148;28;20188;-63
2023/04/05 02:20:08;;;;;;;7.97;7.20;;;2.50;99.90;;;;;;5075161;28;20176;-63
2023/04/05 02:22:35;;;;;;;8.60;7.50;;;2.50;99.90;;;;;;5055332;28;20170;-64
2023/04/05 02:25:02;;;;;;;8.13;7.53;;;2.50;99.90;;;;;;5055004;28;20175;-64
2023/04/05 02:27:28;;;;;;;7.73;7.20;;;2.40;99.90;;;;;;5064272;28;20198;-62
2023/04/05 02:29:56;;;;;;;8.57;7.87;;;2.40;99.90;;;;;;5074829;28;20190;-63
2023/04/05 02:32:22;;;;;;;7.33;6.93;;;2.40;1.00;;;;;;5074583;28;20171;-63
2023/04/05 02:34:47;;;;;;;9.67;8.17;;;2.30;1.00;;;;;;5074841;28;20182;-63
2023/04/05 02:37:13;;;;;;;9.07;8.20;;;2.30;1.00;;;;;;5074473;28;20201;-63
2023/04/05 02:39:38;;;;;;;8.20;7.60;;;2.20;1.00;;;;;;5074766;28;20573;-63
2023/04/05 02:42:04;;;;;;;8.37;7.67;;;2.20;1.00;;;;;;5074676;28;20194;-63
2023/04/05 02:44:29;;;;;;;9.33;8.33;;;2.10;1.00;;;;;;5074432;28;20206;-63
2023/04/05 02:46:55;;;;;;;8.13;7.43;;;2.10;1.00;;;;;;5074883;28;20190;-63
2023/04/05 02:49:21;;;;;;;9.83;9.10;;;2.00;1.00;;;;;;5074161;28;20227;-63
2023/04/05 02:51:46;;;;;;;8.87;8.07;;;2.00;1.00;;;;;;5074688;28;20535;-63
2023/04/05 02:54:12;;;;;;;9.00;8.50;;;1.90;1.00;;;;;;5074605;28;20231;-63
2023/04/05 02:56:37;;;;;;;9.10;8.43;;;1.80;1.00;;;;;;5074324;28;20221;-63
2023/04/05 02:59:03;;;;;;;8.93;8.37;;;1.80;1.00;;;;;;5074664;28;20179;-63
2023/04/05 03:01:29;;;;;;;8.00;7.50;;;1.80;1.00;;;;;;5074117;28;20182;-63
2023/04/05 03:03:55;;;;;;;10.97;7.60;;;1.70;1.00;;;;;;5074422;28;20227;-63
2023/04/05 03:06:21;;;;;;;8.50;7.77;;;1.70;1.00;;;;;;5074832;28;20213;-63
2023/04/05 03:08:48;;;;;;;8.20;7.70;;;1.70;1.00;;;;;;5074361;28;20188;-63
2023/04/05 03:11:14;;;;;;;8.23;7.60;;;1.60;1.00;;;;;;5074344;28;20184;-63
2023/04/05 03:13:40;;;;;;;8.60;7.90;;;1.60;1.00;;;;;;5074176;28;20178;-63
2023/04/05 03:16:06;;;;;;;7.60;7.00;;;1.60;1.00;;;;;;5074043;28;20200;-63
2023/04/05 03:18:31;;;;;;;7.47;7.07;;;1.50;1.00;;;;;;5074828;28;20190;-63
2023/04/05 03:20:58;;;;;;;7.93;7.43;;;1.40;1.00;;;;;;5074131;28;20648;-63
2023/04/05 03:23:29;;;;;;;8.17;7.53;;;1.40;1.00;;;;;;5073986;28;20229;-63
2023/04/05 03:26:02;;;;;;;8.20;7.60;;;1.30;1.00;;;;;;5074262;28;20194;-63
2023/04/05 03:28:31;;;;;;;8.90;8.43;;;1.30;1.00;;;;;;5074262;28;20185;-63
2023/04/05 03:30:57;;;;;;;9.57;8.93;;;1.20;1.00;;;;;;5072459;28;20298;-63
2023/04/05 03:33:23;;;;;;;9.73;9.13;;;1.10;1.00;;;;;;5073544;28;20200;-63
2023/04/05 03:35:48;;;;;;;9.07;8.27;;;1.10;1.00;;;;;;5073590;28;20198;-63
2023/04/05 03:38:15;;;;;;;8.67;8.07;;;1.00;1.00;;;;;;5073933;28;20178;-63
2023/04/05 03:40:40;;;;;;;9.60;8.80;;;1.00;1.00;;;;;;5073602;28;20213;-63
2023/04/05 03:43:06;;;;;;;8.67;8.07;;;0.90;1.00;;;;;;5073380;28;20268;-63
2023/04/05 03:45:32;;;;;;;7.80;7.30;;;0.80;1.00;;;;;;5073808;28;20261;-63
2023/04/05 03:47:58;;;;;;;8.07;7.47;;;0.80;1.00;;;;;;5073428;28;20181;-63
2023/04/05 03:50:27;;;;;;;8.70;8.10;;;0.70;14.30;;;;;;5073784;28;20174;-63
2023/04/05 03:52:53;;;;;;;8.47;7.20;;;0.70;98.40;;;;;;5073401;28;20260;-63
2023/04/05 03:55:19;;;;;;;7.90;7.40;;;0.60;99.90;;;;;;5073179;28;20312;-63
2023/04/05 03:57:46;;;;;;;8.63;8.07;;;0.40;99.90;;;;;;5073297;28;20178;-63
2023/04/05 04:00:16;;;;;;;7.40;7.00;;;0.40;99.90;;;;;;5073507;28;20174;-63
2023/04/05 04:02:43;;;;;;;7.80;7.30;;;0.30;1.00;;;;;;5072936;28;20635;-63
2023/04/05 04:05:10;;;;;;;7.60;7.10;;;0.30;93.80;;;;;;5071809;28;20547;-63
2023/04/05 04:07:35;;;;;;;8.03;7.40;;;0.20;99.90;;;;;;5072948;28;20198;-63
2023/04/05 04:10:02;;;;;;;8.67;7.87;;;0.10;1.00;;;;;;5071639;28;20227;-65
2023/04/05 04:12:28;;;;;;;7.90;7.30;;;0.10;99.90;;;;;;5072912;28;20224;-63
2023/04/05 04:14:53;;;;;;;8.03;7.53;;;0.10;18.80;;;;;;5073218;28;20182;-63
2023/04/05 04:17:27;;;;;;;8.30;7.80;;;0.10;1.00;;;;;;5072711;28;20197;-62
2023/04/05 04:19:53;;;;;;;8.07;7.63;;;0.00;1.00;;;;;;5072845;28;20174;-63
2023/04/05 04:22:19;;;;;;;8.50;7.93;;;0.00;99.90;;;;;;5073237;28;20255;-66
2023/04/05 04:24:48;;;;;;;7.77;7.27;;;0.00;99.90;;;;;;5071630;28;20206;-64
2023/04/05 04:27:15;;;;;;;9.27;8.70;;;0.00;91.20;;;;;;5071906;28;20252;-63
2023/04/05 04:29:45;;;;;;;9.13;8.40;;;0.00;99.90;;;;;;5072342;28;20287;-64
2023/04/05 04:32:14;;;;;;;8.23;7.70;;;0.00;99.90;;;;;;5072289;28;20224;-64
2023/04/05 04:34:43;;;;;;;9.23;7.27;;;-0.10;99.90;;;;;;5072580;28;20216;-64
2023/04/05 04:37:21;;;;;;;8.13;7.53;;;-0.10;99.90;;;;;;5072320;28;20244;-64
2023/04/05 04:39:47;;;;;;;8.40;7.70;;;-0.10;99.90;;;;;;5072575;28;20632;-64
2023/04/05 04:42:21;;;;;;;8.53;7.73;;;-0.20;99.90;;;;;;5072502;28;20171;-64
2023/04/05 04:44:47;;;;;;;8.80;8.20;;;-0.10;99.90;;;;;;5072309;28;20660;-64
2023/04/05 04:47:16;;;;;;;8.17;7.63;;;-0.20;99.90;;;;;;5071774;28;20190;-64
2023/04/05 04:49:42;;;;;;;9.20;8.57;;;-0.20;99.90;;;;;;5072169;28;20254;-64
2023/04/05 04:52:08;;;;;;;8.70;8.00;;;-0.20;99.90;;;;;;5073917;28;20174;-64
2023/04/05 04:54:35;;;;;;;8.63;8.03;;;-0.20;1.00;;;;;;5073155;28;20252;-64
2023/04/05 04:57:03;;;;;;;8.83;8.20;;;-0.20;1.00;;;;;;5072602;28;20190;-64
2023/04/05 04:59:29;;;;;;;11.60;8.23;;;-0.20;1.00;;;;;;5072403;28;20197;-64
2023/04/05 05:01:55;;;;;;;9.03;8.40;;;-0.20;1.00;;;;;;5072402;28;20718;-64
2023/04/05 05:04:21;;;;;;;11.20;10.43;;;-0.10;1.00;;;;;;5072456;28;20298;-64
2023/04/05 05:06:50;;;;;;;12.43;11.43;;;-0.10;1.00;;;;;;5072466;28;20235;-64
2023/04/05 05:09:16;;;;;;;10.63;10.07;;;-0.10;1.00;;;;;;5071362;28;20185;-64
2023/04/05 05:11:41;;;;;;;10.47;9.87;;;-0.20;1.00;;;;;;5071193;28;20170;-64
2023/04/05 05:14:07;;;;;;;12.47;11.70;;;-0.20;1.00;;;;;;5071941;28;20253;-64
2023/04/05 05:16:32;;;;;;;12.47;11.50;;;-0.20;1.00;;;;;;5071536;28;20569;-64
2023/04/05 05:18:58;;;;;;;12.80;11.70;;;-0.10;1.00;;;;;;5071926;28;20181;-64
2023/04/05 05:21:23;;;;;;;10.93;10.03;;;-0.10;1.00;;;;;;5071039;28;20182;-64
2023/04/05 05:23:49;;;;;;;12.23;11.40;;;-0.10;1.00;;;;;;5071792;28;20543;-64
2023/04/05 05:26:15;;;;;;;9.80;9.30;;;0.00;1.00;;;;;;5071246;28;20352;-64
2023/04/05 05:28:41;;;;;;;10.73;10.13;;;0.10;1.00;;;;;;5071977;28;20227;-65
2023/04/05 05:31:06;;;;;;;8.90;8.10;;;0.10;1.00;;;;;;5069790;28;20243;-65
2023/04/05 05:33:32;;;;;;;8.60;8.03;;;0.20;1.00;;;;;;5071370;28;20643;-64
2023/04/05 05:35:57;;;;;;;8.20;7.70;;;0.20;1.00;;;;;;5071752;28;20574;-64
2023/04/05 05:38:23;;;;;;;8.53;7.73;;;0.30;1.00;;;;;;5069419;28;20227;-65
2023/04/05 05:40:55;;;;;;;10.53;8.00;;;0.40;1.00;;;;;;5071095;28;20265;-65
2023/04/05 05:43:21;;;;;;;9.77;7.60;;;0.40;1.00;;;;;;5071249;28;20217;-65
2023/04/05 05:45:47;;;;;;;8.00;7.50;;;0.50;1.00;;;;;;5071505;28;20245;-65
2023/04/05 05:48:12;;;;;;;8.90;8.07;;;0.50;1.00;;;;;;5073390;28;20652;-65
2023/04/05 05:50:38;;;;;;;9.23;8.63;;;0.60;1.00;;;;;;5071058;28;20177;-65
2023/04/05 05:53:04;;;;;;;8.97;8.37;;;0.70;1.00;;;;;;5071503;28;20170;-64
2023/04/05 05:55:30;;;;;;;8.27;7.77;;;0.70;1.00;;;;;;5071285;28;20176;-64
2023/04/05 05:57:56;;;;;;;9.00;8.40;;;0.80;1.00;;;;;;5071568;28;20639;-65
2023/04/05 06:00:21;;;;;;;9.40;8.77;;;0.90;1.00;;;;;;5071039;28;20178;-65
2023/04/05 06:02:48;;;;;;;10.03;9.23;;;0.90;1.00;;;;;;5071368;28;20182;-65
2023/04/05 06:05:13;;;;;;;10.00;9.40;;;1.00;1.00;;;;;;5070884;28;20257;-65
2023/04/05 06:07:39;;;;;;;10.50;9.40;;;1.10;1.00;;;;;;5071032;28;20335;-66
2023/04/05 06:10:06;;;;;;;9.93;9.23;;;1.20;1.00;;;;;;5068981;28;20706;-64
2023/04/05 06:12:32;;;;;;;10.30;9.60;;;1.30;1.00;;;;;;5070266;28;20186;-65
2023/04/05 06:14:57;;;;;;;10.03;9.43;;;1.30;1.00;;;;;;5071183;28;20189;-65
2023/04/05 06:17:23;;;;;;;9.87;9.37;;;1.40;1.00;;;;;;5069683;28;20198;-65
2023/04/05 06:19:49;;;;;;;9.53;8.93;;;1.50;1.00;;;;;;5069443;28;20186;-65
2023/04/05 06:22:15;;;;;;;8.63;7.93;;;1.70;1.00;;;;;;5070793;28;20214;-65
2023/04/05 06:24:40;;;;;;;9.33;8.63;;;1.90;1.00;;;;;;5069287;28;20206;-65
2023/04/05 06:27:07;;;;;;;10.27;9.27;;;2.30;1.00;;;;;;5070982;28;20387;-65
2023/04/05 06:29:32;;;;;;;9.97;9.27;;;2.90;1.00;;;;;;5070566;28;20640;-64
2023/04/05 06:31:58;;;;;;;20.67;9.90;;;3.50;1.00;;;;;;5071436;28;20224;-65
2023/04/05 06:34:23;;;;;;;8.40;7.53;;;4.10;1.00;;;;;;5070962;28;20224;-65
2023/04/05 06:36:49;;;;;;;8.27;7.63;;;4.70;1.00;;;;;;5071376;28;20198;-66
2023/04/05 06:39:15;;;;;;;8.60;7.90;;;5.30;1.00;;;;;;5069630;28;20178;-65
2023/04/05 06:41:40;;;;;;;8.27;7.43;;;5.80;1.00;;;;;;5070399;28;20208;-65
2023/04/05 06:44:06;;;;;;;8.57;7.77;;;6.30;1.00;;;;;;5070773;28;20210;-65
2023/04/05 06:46:31;;;;;;;9.07;8.30;;;6.80;1.00;;;;;;5070547;28;20248;-65
2023/04/05 06:48:57;;;;;;;7.37;6.73;;;7.30;99.90;;;;;;5072004;28;20242;-66
2023/04/05 06:51:25;;;;;;;7.23;6.37;;;7.80;99.90;;;;;;5071312;28;20186;-64
2023/04/05 06:53:51;;;;;;;7.47;6.77;;;8.10;99.90;;;;;;5062091;28;20185;-65
2023/04/05 06:56:16;;;;;;;7.03;6.43;;;8.30;99.90;;;;;;5073962;28;20263;-65
2023/04/05 06:58:43;;;;;;;6.40;5.97;;;8.40;99.90;;;;;;5074469;28;20162;-65
2023/04/05 07:01:08;;;;;;;6.40;5.80;;;8.60;99.90;;;;;;5072508;28;20651;-65
2023/04/05 07:03:35;;;;;;;6.60;5.97;;;8.60;99.90;;;;;;5074057;28;20212;-65
2023/04/05 07:06:01;;;;;;;6.27;5.87;;;8.80;99.90;;;;;;5074061;28;20611;-65
2023/04/05 07:08:32;;;;;;;6.60;6.03;;;8.90;99.90;;;;;;5073791;28;20193;-66
2023/04/05 07:10:57;;;;;;;6.40;6.00;;;9.20;99.90;;;;;;5074215;28;20190;-67
2023/04/05 07:13:24;;;;;;;6.10;5.50;;;9.50;99.90;;;;;;5073696;28;20644;-65
2023/04/05 07:15:51;;;;;;;7.83;5.60;;;9.70;99.90;;;;;;5074151;28;20202;-65
2023/04/05 07:18:17;;;;;;;6.70;6.10;;;10.00;99.90;;;;;;5072590;28;20186;-66
2023/04/05 07:20:46;;;;;;;7.17;5.80;;;10.30;99.90;;;;;;5073916;28;20245;-64
2023/04/05 07:23:11;;;;;;;7.27;5.83;;;10.30;99.90;;;;;;5073572;28;20247;-65
2023/04/05 07:25:39;;;;;;;5.83;5.33;;;10.40;99.90;;;;;;5073596;28;20194;-65
2023/04/05 07:28:05;;;;;;;6.20;5.70;;;10.40;99.90;;;;;;5073503;28;20639;-66
2023/04/05 07:30:31;;;;;;;6.10;5.60;;;10.40;99.90;;;;;;5072050;28;20232;-65
2023/04/05 07:32:57;;;;;;;6.53;5.93;;;10.50;99.90;;;;;;5070017;28;20684;-65
2023/04/05 07:35:23;;;;;;;5.60;5.20;;;10.70;99.90;;;;;;5072929;28;20202;-65
2023/04/05 07:37:48;;;;;;;6.23;5.73;;;10.90;99.90;;;;;;5073768;28;20271;-66
2023/04/05 07:40:14;;;;;;;8.03;5.40;;;11.00;99.90;;;;;;5073353;28;20265;-65
2023/04/05 07:42:40;;;;;;;5.63;5.23;;;11.00;99.90;;;;;;5073435;28;20182;-65
2023/04/05 07:45:06;;;;;;;6.27;5.67;;;11.10;99.90;;;;;;5073568;28;20213;-65
2023/04/05 07:47:33;;;;;;;6.23;5.63;;;11.20;99.90;;;;;;5073030;28;20266;-65
2023/04/05 07:49:59;;;;;;;6.17;5.57;;;11.20;99.90;;;;;;5055613;28;20627;-65
2023/04/05 07:52:25;;;;;;;6.40;5.77;;;11.40;99.90;;;;;;5069575;28;20188;-65
2023/04/05 07:54:51;;;;;;;6.50;5.83;;;11.70;99.90;;;;;;5071788;28;20316;-66
2023/04/05 07:57:17;;;;;;;6.50;5.57;;;12.10;99.90;;;;;;5070227;28;20241;-66
2023/04/05 07:59:43;;;;;;;5.97;5.47;;;12.40;99.90;;;;;;5070348;28;20655;-66
2023/04/05 08:02:08;;;;;;;5.57;5.03;;;12.60;99.90;;;;;;5065699;28;20258;-65
2023/04/05 08:04:34;;;;;;;5.50;5.10;;;12.80;99.90;;;;;;5053266;28;20206;-66
2023/04/05 08:07:00;;;;;;;6.57;5.97;;;13.00;99.90;;;;;;5065039;28;20193;-65
2023/04/05 08:09:25;;;;;;;4.90;4.57;;;13.10;99.90;;;;;;5072653;28;20189;-66
2023/04/05 08:11:51;;;;;;;7.17;5.20;;;13.40;99.90;;;;;;5088687;28;20175;-66
2023/04/05 08:14:16;;;;;;;5.30;4.80;;;13.50;99.90;;;;;;5073023;28;20174;-66
2023/04/05 08:16:42;;;;;;;6.40;5.93;;;13.90;99.90;;;;;;5072932;28;20194;-66
2023/04/05 08:19:08;;;;;;;5.20;4.80;;;14.20;99.90;;;;;;5060857;28;20211;-65
2023/04/05 08:21:34;;;;;;;6.13;5.53;;;14.50;99.90;;;;;;5052501;28;20202;-66
2023/04/05 08:23:59;;;;;;;5.83;4.93;;;14.80;99.90;;;;;;5052672;28;20634;-66
2023/04/05 08:26:25;;;;;;;4.93;4.53;;;15.20;99.90;;;;;;5069511;28;20228;-65
2023/04/05 08:28:51;;;;;;;5.80;5.20;;;15.40;99.90;;;;;;5070383;28;20182;-66
2023/04/05 08:31:16;;;;;;;5.70;5.10;;;15.30;99.90;;;;;;5071632;28;20204;-65
2023/04/05 08:33:42;;;;;;;5.93;5.27;;;15.40;99.90;;;;;;5072265;28;20605;-66
2023/04/05 08:36:09;;;;;;;5.70;5.20;;;15.40;99.90;;;;;;5072132;28;20285;-66
2023/04/05 08:38:35;;;;;;;5.83;5.23;;;15.50;99.90;;;;;;5072230;28;20539;-65
2023/04/05 08:41:16;;;;;;;8.50;5.20;;;15.40;99.90;;;;;;5071872;28;20182;-64
2023/04/05 08:44:01;;;;;;;4.93;4.43;;;15.30;99.90;;;;;;5072121;28;20214;-66
2023/04/05 08:46:30;;;;;;;5.87;5.37;;;15.50;99.90;;;;;;5072120;28;20197;-65
2023/04/05 08:49:00;;;;;;;5.67;5.07;;;15.30;99.90;;;;;;5072299;28;20174;-65
2023/04/05 08:51:26;;;;;;;5.90;5.30;;;15.40;99.90;;;;;;5071751;28;20170;-65
2023/04/05 08:53:52;;;;;;;8.53;5.40;;;15.60;99.90;;;;;;5070350;28;20702;-65
2023/04/05 08:56:28;;;;;;;6.10;5.50;;;15.70;99.90;;;;;;5072049;28;20240;-65
2023/04/05 08:59:01;;;;;;;6.37;5.30;;;16.00;99.90;;;;;;5070750;28;20549;-65
2023/04/05 09:01:29;;;;;;;6.83;4.87;;;15.90;99.90;;;;;;5052689;28;20178;-65
2023/04/05 09:03:58;;;;;;;6.80;5.40;;;16.30;99.90;;;;;;5068094;28;20247;-66
2023/04/05 09:06:26;;;;;;;4.72;4.32;;;16.80;99.90;;;;;;5071704;28;20221;-65
2023/04/05 09:08:55;;;;;;;8.00;5.10;;;17.10;99.90;;;;;;5059183;28;20186;-65
2023/04/05 09:11:20;;;;;;;6.63;5.87;;;17.10;99.90;;;;;;5051217;28;20171;-65
2023/04/05 09:13:46;;;;;;;6.38;4.68;;;17.30;99.90;;;;;;5051306;28;20178;-66
2023/04/05 09:16:14;;;;;;;5.10;4.60;;;17.70;99.90;;;;;;5051625;28;20648;-65
2023/04/05 09:18:40;;;;;;;5.63;5.07;;;18.00;99.90;;;;;;5050280;28;20179;-65
2023/04/05 09:21:06;;;;;;;5.55;4.97;;;18.50;99.90;;;;;;5063583;28;20174;-65
2023/04/05 09:23:34;;;;;;;6.50;4.70;;;18.20;99.90;;;;;;5070838;28;20209;-65
2023/04/05 09:26:15;;;;;;;5.30;4.90;;;18.30;99.90;;;;;;5071263;28;20560;-65
2023/04/05 09:28:42;;;;;;;5.15;4.68;;;18.10;99.90;;;;;;5071402;28;20548;-65
2023/04/05 09:31:07;;;;;;;5.55;5.05;;;17.70;99.90;;;;;;5071316;28;20651;-65
2023/04/05 09:33:34;;;;;;;5.35;4.88;;;17.20;99.90;;;;;;5071317;28;20218;-65
2023/04/05 09:35:59;;;;;;;5.03;4.63;;;17.00;99.90;;;;;;5071555;28;20315;-65
2023/04/05 09:38:45;;;;;;;4.53;4.13;;;17.40;99.90;;;;;;5071150;28;20192;-66
2023/04/05 09:41:10;;;;;;;6.35;5.07;;;17.90;99.90;;;;;;5069781;28;20303;-64
2023/04/05 09:43:37;;;;;;;5.40;4.90;;;18.00;99.90;;;;;;5071209;28;20230;-65
2023/04/05 09:46:03;;;;;;;5.68;5.13;;;18.10;99.90;;;;;;5071449;28;20194;-65
2023/04/05 09:48:55;;;;;;;6.85;4.75;;;18.30;99.90;;;;;;5071439;28;20597;-65
2023/04/05 09:51:21;;;;;;;5.68;5.22;;;18.50;99.90;;;;;;5049069;28;20183;-65
2023/04/05 09:54:01;;;;;;;5.85;5.20;;;18.70;99.90;;;;;;5052999;28;20258;-65
2023/04/05 09:56:32;;;;;;;5.90;5.18;;;18.90;99.90;;;;;;5069098;28;20198;-65
2023/04/05 09:59:00;;;;;;;8.13;4.60;;;19.10;99.90;;;;;;5071106;28;20182;-65
2023/04/05 10:01:35;;;;;;;7.78;5.20;;;18.90;99.90;;;;;;5070832;28;20173;-65
2023/04/05 10:04:01;;;;;;;5.40;4.85;;;19.10;99.90;;;;;;5071340;28;20243;-65
2023/04/05 10:06:41;;;;;;;6.22;4.50;;;18.70;99.90;;;;;;5071092;28;20185;-65
2023/04/05 10:09:08;;;;;;;6.28;5.03;;;18.50;99.90;;;;;;5070650;28;20193;-65
2023/04/05 10:11:35;;;;;;;6.15;5.03;;;18.50;99.90;;;;;;5069989;28;20612;-65
2023/04/05 10:14:05;;;;;;;5.32;4.90;;;18.20;99.90;;;;;;5071026;28;20178;-64
2023/04/05 10:16:41;;;;;;;5.38;4.88;;;17.90;99.90;;;;;;5071431;28;20213;-65
2023/04/05 10:19:22;;;;;;;5.18;4.72;;;18.10;99.90;;;;;;5070827;28;20664;-65
2023/04/05 10:21:50;;;;;;;4.93;4.53;;;18.20;99.90;;;;;;5071123;28;20533;-66
2023/04/05 10:24:23;;;;;;;6.25;5.10;;;18.20;99.90;;;;;;5073111;28;20649;-64
2023/04/05 10:27:04;;;;;;;5.90;5.30;;;18.10;99.90;;;;;;5074758;28;20198;-64
2023/04/05 10:29:39;;;;;;;8.13;5.50;;;18.10;99.90;;;;;;5073031;28;20178;-64
2023/04/05 10:32:12;;;;;;;5.70;5.20;;;18.10;99.90;;;;;;5075249;28;20579;-64
2023/04/05 10:34:53;;;;;;;5.13;4.72;;;18.20;99.90;;;;;;5074725;28;20631;-65
2023/04/05 10:37:47;;;;;;;6.45;4.63;;;18.30;99.90;;;;;;5074865;28;20272;-64
2023/04/05 10:40:15;;;;;;;5.60;5.10;;;18.40;99.90;;;;;;5059205;28;20180;-64
2023/04/05 10:42:45;;;;;;;5.43;5.00;;;18.60;99.90;;;;;;5074982;28;20182;-64
2023/04/05 10:45:14;;;;;;;5.10;4.65;;;18.60;99.90;;;;;;5074323;28;20543;-64
2023/04/05 10:47:54;;;;;;;6.97;5.43;;;18.70;99.90;;;;;;5073645;28;20190;-64
2023/04/05 10:50:22;;;;;;;5.93;5.40;;;18.40;99.90;;;;;;5074044;28;20170;-64
2023/04/05 10:52:49;;;;;;;5.70;5.30;;;18.30;99.90;;;;;;5074888;28;20170;-64
2023/04/05 10:55:15;;;;;;;5.75;5.25;;;18.20;99.90;;;;;;5074745;28;20181;-65
2023/04/05 10:57:43;;;;;;;5.20;4.78;;;17.90;99.90;;;;;;5073219;28;20174;-64
2023/04/05 11:00:10;;;;;;;6.67;6.07;;;17.40;99.90;;;;;;5073679;28;20697;-64
2023/04/05 11:02:36;;;;;;;5.67;5.20;;;17.10;99.90;;;;;;5072303;28;20182;-64
2023/04/05 11:05:03;;;;;;;6.80;6.20;;;17.20;99.90;;;;;;5074451;28;20675;-64
2023/04/05 11:07:43;;;;;;;5.30;4.90;;;17.40;99.90;;;;;;5074004;28;20293;-64
2023/04/05 11:10:16;;;;;;;6.23;5.70;;;17.60;99.90;;;;;;5074253;28;20365;-64
2023/04/05 11:12:45;;;;;;;5.70;5.20;;;17.60;99.90;;;;;;5074126;28;20177;-64
2023/04/05 11:15:29;;;;;;;5.82;5.32;;;17.70;99.90;;;;;;5074169;28;20181;-64
2023/04/05 11:18:06;;;;;;;5.70;5.15;;;18.00;99.90;;;;;;5073701;28;20197;-64
2023/04/05 11:20:51;;;;;;;9.13;5.35;;;18.20;99.90;;;;;;5073859;28;20166;-64
2023/04/05 11:23:19;;;;;;;5.83;5.33;;;17.90;99.90;;;;;;5067653;28;20301;-64
2023/04/05 11:26:03;;;;;;;5.20;4.80;;;17.60;99.90;;;;;;5074079;28;20661;-64
2023/04/05 11:28:32;;;;;;;7.00;5.10;;;17.40;99.90;;;;;;5073953;28;20227;-64
2023/04/05 11:31:15;;;;;;;5.63;5.13;;;17.60;99.90;;;;;;5072359;28;20166;-64
2023/04/05 11:33:44;;;;;;;6.57;5.20;;;18.00;99.90;;;;;;5072967;28;20517;-64
2023/04/05 11:36:10;;;;;;;6.57;5.20;;;18.40;99.90;;;;;;5072116;28;20194;-64
2023/04/05 11:38:36;;;;;;;5.72;5.32;;;18.10;99.90;;;;;;5073847;28;20190;-64
2023/04/05 11:41:16;;;;;;;6.00;5.50;;;18.10;99.90;;;;;;5073515;28;20166;-64
2023/04/05 11:43:43;;;;;;;7.23;5.57;;;17.90;99.90;;;;;;5072057;28;20663;-64
2023/04/05 11:46:09;;;;;;;6.83;5.27;;;17.90;99.90;;;;;;5073858;28;20189;-64
2023/04/05 11:48:35;;;;;;;6.25;5.68;;;18.00;99.90;;;;;;5072221;28;20544;-64
2023/04/05 11:51:09;;;;;;;5.68;5.13;;;18.30;99.90;;;;;;5073347;28;20249;-64
2023/04/05 11:53:35;;;;;;;5.35;4.85;;;18.70;99.90;;;;;;5072039;28;20185;-64
2023/04/05 11:56:09;;;;;;;6.65;5.78;;;18.80;99.90;;;;;;5073400;28;20281;-64
2023/04/05 11:58:36;;;;;;;6.20;5.63;;;18.60;99.90;;;;;;5072100;28;20178;-64
2023/04/05 12:01:05;;;;;;;6.80;6.20;;;18.50;99.90;;;;;;5073046;28;20167;-64
2023/04/05 12:03:30;;;;;;;6.15;5.32;;;18.40;99.90;;;;;;5072951;28;20209;-64
2023/04/05 12:05:58;;;;;;;5.63;5.22;;;18.60;99.90;;;;;;5072947;28;20194;-64
2023/04/05 12:08:37;;;;;;;5.87;5.47;;;18.30;99.90;;;;;;5071006;28;20620;-64
2023/04/05 12:11:06;;;;;;;7.63;5.83;;;18.20;99.90;;;;;;5072979;28;20190;-64
2023/04/05 12:13:34;;;;;;;6.57;5.57;;;17.80;99.90;;;;;;5054910;28;20406;-64
2023/04/05 12:16:01;;;;;;;6.23;5.27;;;17.30;99.90;;;;;;5052990;28;20309;-64
2023/04/05 12:18:30;;;;;;;6.80;5.30;;;17.30;99.90;;;;;;5068893;28;20193;-64
2023/04/05 12:20:56;;;;;;;6.27;5.30;;;17.00;99.90;;;;;;5072726;28;20643;-64
2023/04/05 12:23:23;;;;;;;6.97;6.27;;;16.90;99.90;;;;;;5072358;28;20386;-64
2023/04/05 12:25:49;;;;;;;6.03;5.47;;;17.10;99.90;;;;;;5072717;28;20602;-64
2023/04/05 12:28:14;;;;;;;7.53;5.47;;;17.20;99.90;;;;;;5072381;28;20182;-64
2023/04/05 12:30:50;;;;;;;6.33;5.83;;;17.00;99.90;;;;;;5072550;28;20171;-64
2023/04/05 12:33:26;;;;;;;6.67;6.00;;;16.80;99.90;;;;;;5072127;28;20174;-64
2023/04/05 12:35:51;;;;;;;7.73;6.07;;;16.50;99.90;;;;;;5072572;28;20193;-64
2023/04/05 12:38:17;;;;;;;5.83;5.33;;;16.10;99.90;;;;;;5072221;28;20170;-64
2023/04/05 12:40:43;;;;;;;9.07;6.00;;;16.20;99.90;;;;;;5070807;28;20178;-64
2023/04/05 12:43:09;;;;;;;5.30;4.80;;;16.60;99.90;;;;;;5072153;28;20184;-64
2023/04/05 12:45:38;;;;;;;6.57;5.97;;;17.00;99.90;;;;;;5072494;28;20283;-64
2023/04/05 12:48:12;;;;;;;5.83;5.27;;;17.00;99.90;;;;;;5071641;28;20659;-64
2023/04/05 12:50:43;;;;;;;5.57;5.10;;;17.20;99.90;;;;;;5071910;28;20253;-64
2023/04/05 12:53:19;;;;;;;5.37;4.90;;;17.50;99.90;;;;;;5070476;28;20174;-64
2023/04/05 12:55:51;;;;;;;5.60;5.20;;;17.50;99.90;;;;;;5072199;28;20186;-64
2023/04/05 12:58:21;;;;;;;6.33;5.23;;;17.70;99.90;;;;;;5071891;28;20176;-64
2023/04/05 13:00:47;;;;;;;5.47;5.07;;;17.60;99.90;;;;;;5071839;28;20167;-64